createdAt,value
2023-05-19T00:01:37.785Z,101385.42
2023-05-19T00:04:05.517Z,101385.84
2023-05-19T00:06:33.522Z,101384.11
2023-05-19T00:09:07.572Z,101387.27
2023-05-19T00:11:38.374Z,101385.63
2023-05-19T00:14:10.248Z,101381.70
2023-05-19T00:16:38.477Z,101380.25
2023-05-19T00:19:06.680Z,101385.33
2023-05-19T00:21:33.950Z,101381.38
2023-05-19T00:24:01.424Z,101379.61
2023-05-19T00:26:28.652Z,101380.75
2023-05-19T00:28:59.573Z,101381.32
2023-05-19T00:31:26.770Z,101379.77
2023-05-19T00:33:55.250Z,101375.88
2023-05-19T00:36:22.430Z,101381.11
2023-05-19T00:38:51.227Z,101376.91
2023-05-19T00:41:18.514Z,101379.92
2023-05-19T00:43:45.790Z,101379.20
2023-05-19T00:46:13.105Z,101376.91
2023-05-19T00:48:40.337Z,101381.64
2023-05-19T00:51:07.585Z,101380.77
2023-05-19T00:53:35.607Z,101377.34
2023-05-19T00:56:03.908Z,101380.97
2023-05-19T00:58:32.815Z,101378.02
2023-05-19T01:01:04.525Z,101375.84
2023-05-19T01:03:35.606Z,101375.13
2023-05-19T01:06:07.551Z,101376.02
2023-05-19T01:08:37.456Z,101371.44
2023-05-19T01:11:08.468Z,101373.21
2023-05-19T01:13:36.937Z,101370.66
2023-05-19T01:16:24.911Z,101370.21
2023-05-19T01:19:22.323Z,101368.66
2023-05-19T01:21:58.522Z,101369.09
2023-05-19T01:24:59.345Z,101370.90
2023-05-19T01:28:05.482Z,101370.95
2023-05-19T01:30:42.788Z,101372.59
2023-05-19T01:33:14.336Z,101373.14
2023-05-19T01:35:43.693Z,101373.52
2023-05-19T01:38:12.981Z,101378.40
2023-05-19T01:40:42.293Z,101376.45
2023-05-19T01:43:12.586Z,101377.90
2023-05-19T01:45:40.590Z,101375.74
2023-05-19T01:48:10.860Z,101373.19
2023-05-19T01:50:39.592Z,101374.17
2023-05-19T01:53:06.821Z,101375.64
2023-05-19T01:55:48.427Z,101373.52
2023-05-19T01:58:25.846Z,101376.54
2023-05-19T02:01:11.197Z,101378.05
2023-05-19T02:03:59.317Z,101374.48
2023-05-19T02:06:49.755Z,101371.30
2023-05-19T02:10:04.233Z,101370.51
2023-05-19T02:12:36.043Z,101367.33
2023-05-19T02:15:06.516Z,101373.27
2023-05-19T02:17:38.400Z,101368.77
2023-05-19T02:20:06.852Z,101370.28
2023-05-19T02:22:34.048Z,101371.98
2023-05-19T02:25:01.429Z,101372.40
2023-05-19T02:27:28.647Z,101373.14
2023-05-19T02:29:55.954Z,101373.30
2023-05-19T02:32:23.065Z,101372.83
2023-05-19T02:34:50.224Z,101374.13
2023-05-19T02:37:17.860Z,101376.93
2023-05-19T02:39:45.006Z,101374.20
2023-05-19T02:42:14.782Z,101372.41
2023-05-19T02:44:41.965Z,101373.35
2023-05-19T02:47:09.033Z,101376.58
2023-05-19T02:49:36.255Z,101373.13
2023-05-19T02:52:04.941Z,101370.80
2023-05-19T02:54:33.367Z,101367.60
2023-05-19T02:57:01.553Z,101367.45
2023-05-19T02:59:28.844Z,101368.09
2023-05-19T03:01:59.713Z,101369.52
2023-05-19T03:04:27.557Z,101375.35
2023-05-19T03:06:54.670Z,101374.10
2023-05-19T03:09:21.858Z,101374.48
2023-05-19T03:11:49.079Z,101375.48
2023-05-19T03:14:16.227Z,101377.27
2023-05-19T03:16:43.638Z,101378.30
2023-05-19T03:19:11.105Z,101379.16
2023-05-19T03:21:38.310Z,101377.66
2023-05-19T03:24:05.706Z,101378.48
2023-05-19T03:26:33.565Z,101380.06
2023-05-19T03:29:01.113Z,101375.14
2023-05-19T03:31:30.899Z,101376.89
2023-05-19T03:33:59.276Z,101379.23
2023-05-19T03:36:32.099Z,101378.21
2023-05-19T03:39:00.114Z,101381.92
2023-05-19T03:41:27.621Z,101380.20
2023-05-19T03:43:56.011Z,101374.37
2023-05-19T03:46:23.223Z,101372.55
2023-05-19T03:48:59.408Z,101376.70
2023-05-19T03:51:40.292Z,101376.92
2023-05-19T03:54:19.116Z,101376.23
2023-05-19T03:56:46.273Z,101377.50
2023-05-19T03:59:13.441Z,101377.42
2023-05-19T04:01:40.559Z,101379.84
2023-05-19T04:04:07.909Z,101379.17
2023-05-19T04:06:36.361Z,101376.20
2023-05-19T04:09:05.265Z,101377.47
2023-05-19T04:11:32.479Z,101380.09
2023-05-19T04:13:59.679Z,101378.90
2023-05-19T04:16:26.967Z,101377.96
2023-05-19T04:18:54.237Z,101375.17
2023-05-19T04:21:22.491Z,101381.54
2023-05-19T04:23:49.691Z,101371.04
2023-05-19T04:26:18.124Z,101375.49
2023-05-19T04:28:45.326Z,101372.40
2023-05-19T04:31:12.864Z,101378.74
2023-05-19T04:33:41.137Z,101379.39
2023-05-19T04:36:10.773Z,101382.09
2023-05-19T04:38:42.478Z,101383.23
2023-05-19T04:41:11.061Z,101385.19
2023-05-19T04:43:44.672Z,101385.45
2023-05-19T04:46:13.922Z,101386.69
2023-05-19T04:48:41.779Z,101383.97
2023-05-19T04:51:09.119Z,101385.93
2023-05-19T04:53:36.704Z,101387.60
2023-05-19T04:56:05.995Z,101397.31
2023-05-19T04:58:33.359Z,101391.88
2023-05-19T05:01:00.969Z,101395.42
2023-05-19T05:03:28.548Z,101394.36
2023-05-19T05:05:56.880Z,101394.23
2023-05-19T05:08:24.094Z,101392.69
2023-05-19T05:10:55.562Z,101397.27
2023-05-19T05:13:24.184Z,101397.58
2023-05-19T05:15:52.395Z,101401.39
2023-05-19T05:18:20.058Z,101395.75
2023-05-19T05:20:48.364Z,101397.77
2023-05-19T05:23:16.794Z,101399.23
2023-05-19T05:25:45.680Z,101399.31
2023-05-19T05:28:14.444Z,101400.90
2023-05-19T05:30:42.128Z,101400.20
2023-05-19T05:33:09.798Z,101399.22
2023-05-19T05:35:38.717Z,101398.65
2023-05-19T05:38:06.717Z,101402.84
2023-05-19T05:40:34.366Z,101406.00
2023-05-19T05:43:03.119Z,101406.41
2023-05-19T05:45:32.794Z,101411.52
2023-05-19T05:48:00.890Z,101413.45
2023-05-19T05:50:28.638Z,101414.00
2023-05-19T05:53:01.216Z,101412.59
2023-05-19T05:55:28.738Z,101414.33
2023-05-19T05:57:57.032Z,101414.80
2023-05-19T06:00:25.076Z,101412.30
2023-05-19T06:02:52.337Z,101413.57
2023-05-19T06:05:20.209Z,101415.23
2023-05-19T06:07:48.240Z,101416.07
2023-05-19T06:10:19.894Z,101412.94
2023-05-19T06:12:47.400Z,101417.94
2023-05-19T06:15:15.871Z,101415.49
2023-05-19T06:17:50.986Z,101418.01
2023-05-19T06:20:18.997Z,101417.59
2023-05-19T06:22:46.259Z,101413.55
2023-05-19T06:25:14.203Z,101414.33
2023-05-19T06:27:42.182Z,101415.42
2023-05-19T06:30:10.087Z,101417.39
2023-05-19T06:32:46.238Z,101420.98
2023-05-19T06:35:13.823Z,101421.17
2023-05-19T06:37:40.994Z,101418.91
2023-05-19T06:40:08.904Z,101424.92
2023-05-19T06:42:37.051Z,101423.91
2023-05-19T06:45:15.759Z,101426.30
2023-05-19T06:47:43.016Z,101423.30
2023-05-19T06:50:10.687Z,101424.62
2023-05-19T06:52:39.606Z,101422.58
2023-05-19T06:55:07.144Z,101423.88
2023-05-19T06:57:37.694Z,101426.87
2023-05-19T07:00:08.658Z,101427.85
2023-05-19T07:02:36.151Z,101424.45
2023-05-19T07:05:04.143Z,101424.54
2023-05-19T07:07:31.454Z,101425.66
2023-05-19T07:09:59.072Z,101426.00
2023-05-19T07:12:26.730Z,101425.14
2023-05-19T07:14:54.044Z,101426.08
2023-05-19T07:20:29.045Z,101430.60
2023-05-19T07:22:57.378Z,101432.75
2023-05-19T07:25:26.291Z,101434.77
2023-05-19T07:27:53.624Z,101436.65
2023-05-19T07:30:20.855Z,101437.78
2023-05-19T07:32:48.225Z,101440.16
2023-05-19T07:35:15.558Z,101436.20
2023-05-19T07:37:42.817Z,101436.60
2023-05-19T07:40:10.404Z,101437.70
2023-05-19T07:42:37.684Z,101439.97
2023-05-19T07:45:05.380Z,101441.68
2023-05-19T07:47:32.683Z,101442.92
2023-05-19T07:49:59.891Z,101446.58
2023-05-19T07:52:27.132Z,101437.77
2023-05-19T07:54:54.511Z,101446.36
2023-05-19T07:57:22.279Z,101445.02
2023-05-19T07:59:49.544Z,101440.19
2023-05-19T08:02:16.820Z,101442.83
2023-05-19T08:04:44.102Z,101439.36
2023-05-19T08:07:11.432Z,101441.45
2023-05-19T08:09:38.591Z,101439.52
2023-05-19T08:12:06.074Z,101438.02
2023-05-19T08:14:35.029Z,101431.94
2023-05-19T08:17:02.341Z,101427.81
2023-05-19T08:19:29.530Z,101428.66
2023-05-19T08:21:57.748Z,101425.14
2023-05-19T08:24:24.922Z,101425.53
2023-05-19T08:26:52.111Z,101422.41
2023-05-19T08:29:19.315Z,101424.98
2023-05-19T08:31:46.627Z,101420.95
2023-05-19T08:34:13.944Z,101419.34
2023-05-19T08:36:41.989Z,101425.39
2023-05-19T08:39:09.196Z,101425.29
2023-05-19T08:41:36.615Z,101422.93
2023-05-19T08:44:05.429Z,101426.50
2023-05-19T08:46:33.006Z,101424.55
2023-05-19T08:49:10.087Z,101430.42
2023-05-19T08:51:50.711Z,101431.66
2023-05-19T08:54:18.731Z,101430.77
2023-05-19T08:56:45.947Z,101426.69
2023-05-19T08:59:17.373Z,101429.16
2023-05-19T09:01:46.332Z,101424.49
2023-05-19T09:04:14.315Z,101426.82
2023-05-19T09:06:42.515Z,101423.02
2023-05-19T09:09:10.381Z,101426.19
2023-05-19T09:11:37.879Z,101425.48
2023-05-19T09:14:05.868Z,101421.06
2023-05-19T09:16:34.179Z,101415.63
2023-05-19T09:19:01.544Z,101416.16
2023-05-19T09:21:32.935Z,101412.84
2023-05-19T09:24:07.424Z,101413.90
2023-05-19T09:26:42.125Z,101410.04
2023-05-19T09:29:13.261Z,101405.90
2023-05-19T09:31:48.931Z,101405.81
2023-05-19T09:34:16.590Z,101402.52
2023-05-19T09:36:43.882Z,101404.73
2023-05-19T09:39:17.873Z,101398.95
2023-05-19T09:41:45.858Z,101401.33
2023-05-19T09:44:29.833Z,101402.73
2023-05-19T09:47:01.057Z,101399.41
2023-05-19T09:49:30.358Z,101394.16
2023-05-19T09:51:59.829Z,101393.06
2023-05-19T09:54:32.043Z,101387.34
2023-05-19T09:56:59.822Z,101383.88
2023-05-19T09:59:29.910Z,101376.13
2023-05-19T10:02:00.305Z,101371.35
2023-05-19T10:04:29.065Z,101370.75
2023-05-19T10:06:59.933Z,101368.20
2023-05-19T10:09:28.978Z,101373.27
2023-05-19T10:11:58.306Z,101377.11
2023-05-19T10:14:31.455Z,101377.89
2023-05-19T10:16:59.693Z,101384.97
2023-05-19T10:19:28.853Z,101387.63
2023-05-19T10:21:57.007Z,101386.89
2023-05-19T10:24:24.304Z,101387.77
2023-05-19T10:27:05.679Z,101395.84
2023-05-19T10:29:37.959Z,101393.86
2023-05-19T10:32:10.611Z,101393.52
2023-05-19T10:34:59.639Z,101396.60
2023-05-19T10:37:28.896Z,101396.80
2023-05-19T10:39:57.918Z,101395.13
2023-05-19T10:42:44.450Z,101389.70
2023-05-19T10:45:21.603Z,101380.67
2023-05-19T10:47:51.652Z,101385.52
2023-05-19T10:50:20.820Z,101387.98
2023-05-19T10:52:56.871Z,101384.75
2023-05-19T10:56:04.811Z,101381.71
2023-05-19T10:58:44.087Z,101379.79
2023-05-19T11:01:16.672Z,101375.58
2023-05-19T11:03:54.098Z,101374.17
2023-05-19T11:06:26.596Z,101375.83
2023-05-19T11:08:55.567Z,101378.01
2023-05-19T11:11:23.614Z,101375.17
2023-05-19T11:13:52.674Z,101379.16
2023-05-19T11:16:27.325Z,101378.54
2023-05-19T11:18:55.966Z,101377.67
2023-05-19T11:21:23.315Z,101379.80
2023-05-19T11:23:51.789Z,101376.89
2023-05-19T11:26:45.221Z,101374.91
2023-05-19T11:29:12.825Z,101381.45
2023-05-19T11:31:40.180Z,101375.98
2023-05-19T11:34:08.845Z,101383.17
2023-05-19T11:36:40.097Z,101386.70
2023-05-19T11:39:09.569Z,101389.33
2023-05-19T11:41:40.764Z,101388.87
2023-05-19T11:44:12.267Z,101393.04
2023-05-19T11:46:39.511Z,101395.86
2023-05-19T11:49:07.444Z,101393.93
2023-05-19T11:51:34.740Z,101386.20
2023-05-19T11:54:03.521Z,101380.16
2023-05-19T11:56:35.419Z,101379.37
2023-05-19T11:59:02.559Z,101377.13
2023-05-19T12:01:32.031Z,101374.30
2023-05-19T12:03:59.200Z,101366.37
2023-05-19T12:06:27.731Z,101368.19
2023-05-19T12:08:55.450Z,101363.62
2023-05-19T12:11:23.733Z,101359.87
2023-05-19T12:13:54.715Z,101355.65
2023-05-19T12:16:22.031Z,101358.84
2023-05-19T12:18:49.197Z,101358.14
2023-05-19T12:21:16.523Z,101360.49
2023-05-19T12:23:43.820Z,101367.33
2023-05-19T12:26:11.736Z,101374.30
2023-05-19T12:28:39.034Z,101377.88
2023-05-19T12:31:06.450Z,101380.54
2023-05-19T12:33:35.747Z,101378.64
2023-05-19T12:36:03.314Z,101383.73
2023-05-19T12:38:30.669Z,101385.88
2023-05-19T12:41:00.207Z,101385.93
2023-05-19T12:43:27.710Z,101388.51
2023-05-19T12:45:55.114Z,101392.80
2023-05-19T12:48:23.047Z,101394.63
2023-05-19T12:50:54.075Z,101398.53
2023-05-19T12:53:21.618Z,101393.59
2023-05-19T12:55:48.820Z,101393.29
2023-05-19T12:58:16.662Z,101388.85
2023-05-19T13:00:47.459Z,101385.80
2023-05-19T13:03:17.293Z,101376.08
2023-05-19T13:05:47.058Z,101359.57
2023-05-19T13:08:18.432Z,101346.05
2023-05-19T13:10:47.400Z,101344.20
2023-05-19T13:13:14.887Z,101343.42
2023-05-19T13:15:44.556Z,101345.81
2023-05-19T13:18:13.369Z,101348.23
2023-05-19T13:20:41.938Z,101352.36
2023-05-19T13:23:13.497Z,101354.15
2023-05-19T13:25:41.543Z,101346.38
2023-05-19T13:28:09.717Z,101342.83
2023-05-19T13:30:39.369Z,101346.84
2023-05-19T13:33:07.245Z,101345.56
2023-05-19T13:35:37.852Z,101346.15
2023-05-19T13:38:06.888Z,101351.14
2023-05-19T13:40:35.235Z,101346.89
2023-05-19T13:43:04.130Z,101354.17
2023-05-19T13:45:31.607Z,101351.58
2023-05-19T13:47:58.982Z,101349.39
2023-05-19T13:50:26.654Z,101355.01
2023-05-19T13:52:54.276Z,101357.73
2023-05-19T13:55:21.651Z,101357.41
2023-05-19T13:57:49.368Z,101355.48
2023-05-19T14:00:18.631Z,101350.71
2023-05-19T14:02:46.530Z,101349.08
2023-05-19T14:05:14.033Z,101351.08
2023-05-19T14:07:41.515Z,101347.11
2023-05-19T14:10:09.345Z,101344.60
2023-05-19T14:12:49.322Z,101346.96
2023-05-19T14:15:24.102Z,101345.29
2023-05-19T14:17:53.247Z,101344.73
2023-05-19T14:20:20.545Z,101346.66
2023-05-19T14:22:47.852Z,101351.54
2023-05-19T14:25:15.019Z,101351.35
2023-05-19T14:27:42.155Z,101353.61
2023-05-19T14:30:09.765Z,101347.30
2023-05-19T14:32:36.994Z,101345.05
2023-05-19T14:35:04.553Z,101345.11
2023-05-19T14:37:32.435Z,101348.15
2023-05-19T14:39:59.716Z,101341.33
2023-05-19T14:42:27.006Z,101339.08
2023-05-19T14:44:54.285Z,101338.38
2023-05-19T14:47:21.563Z,101342.95
2023-05-19T14:49:48.911Z,101344.55
2023-05-19T14:52:16.225Z,101344.27
2023-05-19T14:54:43.387Z,101340.56
2023-05-19T14:57:10.648Z,101339.17
2023-05-19T14:59:38.512Z,101337.30
2023-05-19T15:02:06.150Z,101339.30
2023-05-19T15:04:33.366Z,101339.39
2023-05-19T15:09:30.695Z,101342.46
2023-05-19T15:11:58.157Z,101342.86
2023-05-19T15:14:25.676Z,101346.77
2023-05-19T15:16:53.868Z,101347.03
2023-05-19T15:19:21.461Z,101344.97
2023-05-19T15:21:50.718Z,101346.67
2023-05-19T15:24:17.901Z,101344.05
2023-05-19T15:26:45.744Z,101343.38
2023-05-19T15:29:12.959Z,101348.95
2023-05-19T15:31:40.241Z,101350.79
2023-05-19T15:34:07.603Z,101356.79
2023-05-19T15:36:34.791Z,101353.01
2023-05-19T15:39:04.767Z,101351.91
2023-05-19T15:41:32.088Z,101348.55
2023-05-19T15:44:00.665Z,101345.54
2023-05-19T15:46:28.899Z,101342.40
2023-05-19T15:48:56.239Z,101341.77
2023-05-19T15:51:24.172Z,101338.82
2023-05-19T15:53:51.570Z,101339.48
2023-05-19T15:56:19.524Z,101339.52
2023-05-19T15:58:46.693Z,101329.79
2023-05-19T16:01:15.196Z,101331.77
2023-05-19T16:03:42.844Z,101329.64
2023-05-19T16:06:10.238Z,101326.67
2023-05-19T16:08:38.131Z,101329.14
2023-05-19T16:11:05.598Z,101322.20
2023-05-19T16:13:34.028Z,101329.41
2023-05-19T16:16:01.675Z,101330.02
2023-05-19T16:18:31.583Z,101331.30
2023-05-19T16:20:58.840Z,101329.10
2023-05-19T16:23:27.521Z,101330.11
2023-05-19T16:25:54.997Z,101333.91
2023-05-19T16:28:24.446Z,101335.00
2023-05-19T16:30:52.220Z,101332.80
2023-05-19T16:33:19.563Z,101332.55
2023-05-19T16:35:46.800Z,101330.10
2023-05-19T16:38:13.994Z,101332.04
2023-05-19T16:40:41.182Z,101333.14
2023-05-19T16:43:08.361Z,101332.65
2023-05-19T16:45:35.726Z,101334.89
2023-05-19T16:48:03.498Z,101333.70
2023-05-19T16:50:30.810Z,101331.48
2023-05-19T16:52:57.969Z,101331.17
2023-05-19T16:55:26.825Z,101331.35
2023-05-19T16:57:54.099Z,101331.09
2023-05-19T17:00:21.360Z,101328.30
2023-05-19T17:02:48.580Z,101323.85
2023-05-19T17:05:16.048Z,101323.70
2023-05-19T17:07:43.173Z,101326.17
2023-05-19T17:10:10.550Z,101326.23
2023-05-19T17:12:37.912Z,101330.02
2023-05-19T17:15:05.667Z,101321.27
2023-05-19T17:17:32.857Z,101320.55
2023-05-19T17:20:00.087Z,101320.71
2023-05-19T17:22:29.485Z,101320.97
2023-05-19T17:24:57.663Z,101322.60
2023-05-19T17:27:24.877Z,101322.75
2023-05-19T17:29:52.009Z,101321.69
2023-05-19T17:32:22.377Z,101324.45
2023-05-19T17:34:49.497Z,101325.09
2023-05-19T17:37:19.137Z,101326.52
2023-05-19T17:39:46.283Z,101326.80
2023-05-19T17:42:13.432Z,101328.67
2023-05-19T17:44:41.460Z,101329.54
2023-05-19T17:47:08.909Z,101326.44
2023-05-19T17:49:36.346Z,101323.55
2023-05-19T17:52:03.991Z,101324.56
2023-05-19T17:54:31.499Z,101328.50
2023-05-19T17:57:01.793Z,101328.96
2023-05-19T17:59:30.216Z,101327.69
2023-05-19T18:01:57.846Z,101329.20
2023-05-19T18:04:25.635Z,101332.41
2023-05-19T18:06:53.687Z,101332.22
2023-05-19T18:09:23.807Z,101329.98
2023-05-19T18:11:52.031Z,101332.34
2023-05-19T18:14:19.262Z,101332.96
2023-05-19T18:16:47.529Z,101335.63
2023-05-19T18:19:14.854Z,101333.91
2023-05-19T18:21:42.736Z,101328.19
2023-05-19T18:24:11.426Z,101328.44
2023-05-19T18:26:41.929Z,101329.46
2023-05-19T18:29:11.839Z,101330.83
2023-05-19T18:31:39.081Z,101331.14
2023-05-19T18:34:06.485Z,101332.56
2023-05-19T18:36:37.247Z,101337.36
2023-05-19T18:39:04.720Z,101336.49
2023-05-19T18:41:32.251Z,101337.00
2023-05-19T18:43:59.428Z,101336.06
2023-05-19T18:46:26.753Z,101339.59
2023-05-19T18:48:54.062Z,101342.65
2023-05-19T18:51:21.932Z,101343.99
2023-05-19T18:53:50.214Z,101343.73
2023-05-19T18:56:25.144Z,101350.33
2023-05-19T18:58:54.232Z,101355.20
2023-05-19T19:01:21.519Z,101355.50
2023-05-19T19:03:49.441Z,101356.95
2023-05-19T19:06:17.472Z,101357.42
2023-05-19T19:08:44.680Z,101358.66
2023-05-19T19:11:12.042Z,101357.82
2023-05-19T19:13:39.755Z,101356.56
2023-05-19T19:16:07.462Z,101355.17
2023-05-19T19:18:36.495Z,101355.98
2023-05-19T19:21:05.894Z,101360.11
2023-05-19T19:23:33.270Z,101358.23
2023-05-19T19:26:00.596Z,101365.41
2023-05-19T19:28:27.832Z,101367.02
2023-05-19T19:30:55.058Z,101368.00
2023-05-19T19:33:22.390Z,101369.15
2023-05-19T19:35:49.561Z,101368.70
2023-05-19T19:38:16.793Z,101367.45
2023-05-19T19:40:44.022Z,101367.91
2023-05-19T19:43:11.422Z,101363.02
2023-05-19T19:45:42.113Z,101363.89
2023-05-19T19:48:09.459Z,101365.38
2023-05-19T19:50:37.008Z,101366.11
2023-05-19T19:53:04.485Z,101363.77
2023-05-19T19:55:31.885Z,101368.08
2023-05-19T19:57:59.102Z,101367.49
2023-05-19T20:00:26.418Z,101366.38
2023-05-19T20:03:03.541Z,101364.89
2023-05-19T20:05:32.111Z,101367.88
2023-05-19T20:07:59.370Z,101373.84
2023-05-19T20:10:26.836Z,101371.96
2023-05-19T20:12:54.195Z,101374.35
2023-05-19T20:15:21.425Z,101375.50
2023-05-19T20:17:48.824Z,101374.27
2023-05-19T20:20:16.373Z,101373.45
2023-05-19T20:22:45.986Z,101371.88
2023-05-19T20:25:13.317Z,101374.71
2023-05-19T20:27:40.745Z,101375.41
2023-05-19T20:30:08.507Z,101376.78
2023-05-19T20:32:35.924Z,101377.09
2023-05-19T20:35:03.189Z,101375.11
2023-05-19T20:37:30.425Z,101375.61
2023-05-19T20:39:57.559Z,101375.38
2023-05-19T20:42:24.827Z,101374.42
2023-05-19T20:44:52.087Z,101371.81
2023-05-19T20:47:20.083Z,101373.55
2023-05-19T20:49:48.344Z,101373.59
2023-05-19T20:52:16.708Z,101374.76
2023-05-19T20:54:45.488Z,101372.11
2023-05-19T20:57:13.202Z,101370.64
2023-05-19T20:59:40.374Z,101368.90
2023-05-19T21:02:08.026Z,101367.41
2023-05-19T21:04:35.403Z,101365.04
2023-05-19T21:07:02.766Z,101364.83
2023-05-19T21:09:30.023Z,101365.06
2023-05-19T21:11:57.179Z,101365.39
2023-05-19T21:14:25.524Z,101364.42
2023-05-19T21:16:54.336Z,101367.84
2023-05-19T21:19:22.096Z,101368.55
2023-05-19T21:21:49.745Z,101370.02
2023-05-19T21:24:16.880Z,101369.37
2023-05-19T21:26:44.140Z,101370.48
2023-05-19T21:29:11.347Z,101373.95
2023-05-19T21:31:38.625Z,101378.69
2023-05-19T21:34:07.872Z,101376.75
2023-05-19T21:36:35.355Z,101378.80
2023-05-19T21:39:03.780Z,101379.52
2023-05-19T21:41:34.004Z,101378.99
2023-05-19T21:44:01.258Z,101379.05
2023-05-19T21:46:29.338Z,101380.48
2023-05-19T21:48:56.640Z,101379.66
2023-05-19T21:51:24.091Z,101380.17
2023-05-19T21:53:51.228Z,101382.25
2023-05-19T21:56:18.524Z,101378.91
2023-05-19T21:58:45.821Z,101378.87
2023-05-19T22:01:13.312Z,101380.78
2023-05-19T22:03:40.598Z,101381.55
2023-05-19T22:06:08.378Z,101379.83
2023-05-19T22:08:35.793Z,101379.86
2023-05-19T22:11:03.047Z,101378.40
2023-05-19T22:13:30.427Z,101375.13
2023-05-19T22:15:58.143Z,101376.30
2023-05-19T22:18:25.215Z,101376.77
2023-05-19T22:20:52.451Z,101376.25
2023-05-19T22:23:19.691Z,101378.56
2023-05-19T22:25:47.094Z,101378.15
2023-05-19T22:28:14.297Z,101380.38
2023-05-19T22:30:42.343Z,101380.02
2023-05-19T22:33:11.396Z,101378.98
2023-05-19T22:35:38.773Z,101382.96
2023-05-19T22:38:07.451Z,101380.15
2023-05-19T22:40:36.932Z,101376.45
2023-05-19T22:43:04.141Z,101376.13
2023-05-19T22:45:31.949Z,101376.40
2023-05-19T22:47:59.379Z,101377.81
2023-05-19T22:50:26.814Z,101377.62
2023-05-19T22:52:54.033Z,101378.14
2023-05-19T22:55:21.522Z,101380.85
2023-05-19T22:57:48.795Z,101377.83
2023-05-19T23:00:18.809Z,101374.84
2023-05-19T23:02:46.160Z,101374.17
2023-05-19T23:05:13.590Z,101372.65
2023-05-19T23:07:40.943Z,101374.48
2023-05-19T23:10:08.617Z,101373.67
2023-05-19T23:12:35.848Z,101376.98
2023-05-19T23:15:03.820Z,101375.48
2023-05-19T23:17:30.969Z,101376.79
2023-05-19T23:19:58.279Z,101375.48
2023-05-19T23:22:25.508Z,101375.90
2023-05-19T23:24:52.699Z,101373.23
2023-05-19T23:27:19.999Z,101372.80
2023-05-19T23:29:51.039Z,101371.31
2023-05-19T23:32:18.204Z,101368.67
2023-05-19T23:34:47.472Z,101367.59
2023-05-19T23:37:14.690Z,101365.84
2023-05-19T23:39:41.991Z,101360.23
2023-05-19T23:42:09.261Z,101357.71
2023-05-19T23:44:36.547Z,101356.74
2023-05-19T23:47:04.043Z,101360.99
2023-05-19T23:49:31.153Z,101357.02
2023-05-19T23:51:58.378Z,101358.52
2023-05-19T23:54:26.775Z,101361.16
2023-05-19T23:56:55.902Z,101359.14
2023-05-19T23:59:23.290Z,101355.84
